sensor_id;sensor_type;location;lat;lon;timestamp;pressure;altitude;pressure_sealevel;temperature;humidity
21664;BME280;10993;52.510;13.456;2023-02-15T00:02:31;56572.94;;;-146.93;78.17
21664;BME280;10993;52.510;13.456;2023-02-15T00:07:31;56609.38;;;-146.93;78.97
21664;BME280;10993;52.510;13.456;2023-02-15T00:12:33;56589.13;;;-146.93;79.30
21664;BME280;10993;52.510;13.456;2023-02-15T00:17:34;56583.06;;;-146.93;80.51
21664;BME280;10993;52.510;13.456;2023-02-15T00:22:34;56599.25;;;-146.93;80.27
21664;BME280;10993;52.510;13.456;2023-02-15T00:27:36;56615.47;;;-146.93;80.01
21664;BME280;10993;52.510;13.456;2023-02-15T00:32:36;56603.31;;;-146.93;81.00
21664;BME280;10993;52.510;13.456;2023-02-15T00:37:36;56635.72;;;-146.93;81.08
21664;BME280;10993;52.510;13.456;2023-02-15T00:42:38;56609.38;;;-146.93;81.37
21664;BME280;10993;52.510;13.456;2023-02-15T00:47:38;56546.63;;;-146.93;82.15
21664;BME280;10993;52.510;13.456;2023-02-15T00:52:39;56603.31;;;-146.93;81.58
21664;BME280;10993;52.510;13.456;2023-02-15T00:57:40;56617.47;;;-146.93;81.30
21664;BME280;10993;52.510;13.456;2023-02-15T01:02:41;56570.91;;;-146.93;81.72
21664;BME280;10993;52.510;13.456;2023-02-15T01:07:44;56619.50;;;-146.93;81.33
21664;BME280;10993;52.510;13.456;2023-02-15T01:12:45;56617.47;;;-146.93;81.79
21664;BME280;10993;52.510;13.456;2023-02-15T01:17:46;56643.81;;;-146.93;81.90
21664;BME280;10993;52.510;13.456;2023-02-15T01:22:52;56609.38;;;-146.93;81.98
21664;BME280;10993;52.510;13.456;2023-02-15T01:27:53;56617.47;;;-146.93;82.17
21664;BME280;10993;52.510;13.456;2023-02-15T01:32:54;56595.22;;;-146.93;82.39
21664;BME280;10993;52.510;13.456;2023-02-15T01:37:55;56609.38;;;-146.93;81.76
21664;BME280;10993;52.510;13.456;2023-02-15T01:42:56;56597.25;;;-146.93;81.42
21664;BME280;10993;52.510;13.456;2023-02-15T01:48:02;56732.91;;;-146.93;82.09
21664;BME280;10993;52.510;13.456;2023-02-15T01:53:08;56627.59;;;-146.93;82.23
21664;BME280;10993;52.510;13.456;2023-02-15T01:58:12;56641.78;;;-146.93;82.46
21664;BME280;10993;52.510;13.456;2023-02-15T02:03:14;56564.84;;;-146.93;83.22
21664;BME280;10993;52.510;13.456;2023-02-15T02:08:14;56601.28;;;-146.93;83.20
21664;BME280;10993;52.510;13.456;2023-02-15T02:13:16;56639.75;;;-146.93;83.17
21664;BME280;10993;52.510;13.456;2023-02-15T02:18:29;56617.47;;;-146.93;84.23
21664;BME280;10993;52.510;13.456;2023-02-15T02:23:48;56627.59;;;-146.93;84.88
21664;BME280;10993;52.510;13.456;2023-02-15T02:29:09;57417.34;;;-146.93;84.70
21664;BME280;10993;52.510;13.456;2023-02-15T02:34:24;56572.94;;;-146.93;84.47
21664;BME280;10993;52.510;13.456;2023-02-15T02:39:33;56617.47;;;-146.93;85.17
21664;BME280;10993;52.510;13.456;2023-02-15T02:44:41;56487.91;;;-146.93;85.69
21664;BME280;10993;52.510;13.456;2023-02-15T02:49:45;56633.69;;;-146.93;85.72
21664;BME280;10993;52.510;13.456;2023-02-15T02:54:45;56629.63;;;-146.93;85.72
21664;BME280;10993;52.510;13.456;2023-02-15T02:59:46;56662.03;;;-146.93;86.04
21664;BME280;10993;52.510;13.456;2023-02-15T03:04:54;56629.63;;;-146.93;85.49
21664;BME280;10993;52.510;13.456;2023-02-15T03:10:05;56625.59;;;-146.93;85.24
21664;BME280;10993;52.510;13.456;2023-02-15T03:26:51;56629.63;;;-146.93;85.56
21664;BME280;10993;52.510;13.456;2023-02-15T03:31:56;56556.75;;;-146.93;85.22
21664;BME280;10993;52.510;13.456;2023-02-15T03:37:04;56645.81;;;-146.93;86.43
21664;BME280;10993;52.510;13.456;2023-02-15T03:42:11;56625.59;;;-146.93;86.20
21664;BME280;10993;52.510;13.456;2023-02-15T03:47:16;56581.03;;;-146.93;86.79
21664;BME280;10993;52.510;13.456;2023-02-15T03:52:18;56670.13;;;-146.93;87.16
21664;BME280;10993;52.510;13.456;2023-02-15T03:57:23;56633.69;;;-146.93;86.49
21664;BME280;10993;52.510;13.456;2023-02-15T04:02:52;56678.22;;;-146.93;86.29
21664;BME280;10993;52.510;13.456;2023-02-15T04:07:55;56577.00;;;-146.93;85.94
21664;BME280;10993;52.510;13.456;2023-02-15T04:12:57;56690.38;;;-146.93;85.70
21664;BME280;10993;52.510;13.456;2023-02-15T04:17:57;56670.13;;;-146.93;86.08
21664;BME280;10993;52.510;13.456;2023-02-15T04:22:58;56662.03;;;-146.93;86.50
21664;BME280;10993;52.510;13.456;2023-02-15T04:28:18;57101.44;;;-146.93;86.34
21664;BME280;10993;52.510;13.456;2023-02-15T04:33:18;56662.03;;;-146.93;86.13
21664;BME280;10993;52.510;13.456;2023-02-15T04:38:18;56690.38;;;-146.93;86.13
21664;BME280;10993;52.510;13.456;2023-02-15T04:43:20;56682.28;;;-146.93;86.49
21664;BME280;10993;52.510;13.456;2023-02-15T04:48:20;56712.66;;;-146.93;86.63
21664;BME280;10993;52.510;13.456;2023-02-15T04:53:21;56686.31;;;-146.93;86.92
21664;BME280;10993;52.510;13.456;2023-02-15T04:58:23;56696.44;;;-146.93;87.24
21664;BME280;10993;52.510;13.456;2023-02-15T05:03:23;56593.19;;;-146.93;86.56
21664;BME280;10993;52.510;13.456;2023-02-15T05:08:23;56706.56;;;-146.93;87.53
21664;BME280;10993;52.510;13.456;2023-02-15T05:13:25;56706.56;;;-146.93;87.83
21664;BME280;10993;52.510;13.456;2023-02-15T05:18:25;56690.38;;;-146.93;88.27
21664;BME280;10993;52.510;13.456;2023-02-15T05:23:26;56690.38;;;-146.93;88.49
21664;BME280;10993;52.510;13.456;2023-02-15T05:28:28;56621.53;;;-146.93;87.94
21664;BME280;10993;52.510;13.456;2023-02-15T05:33:28;56678.22;;;-146.93;87.15
21664;BME280;10993;52.510;13.456;2023-02-15T05:38:28;56690.38;;;-146.93;86.88
21664;BME280;10993;52.510;13.456;2023-02-15T05:43:31;56524.34;;;-146.93;86.94
21664;BME280;10993;52.510;13.456;2023-02-15T05:48:32;56686.31;;;-146.93;86.83
21664;BME280;10993;52.510;13.456;2023-02-15T05:53:36;56860.47;;;-146.93;87.51
21664;BME280;10993;52.510;13.456;2023-02-15T05:58:40;56672.16;;;-146.93;87.71
21664;BME280;10993;52.510;13.456;2023-02-15T06:03:41;56690.38;;;-146.93;87.76
21664;BME280;10993;52.510;13.456;2023-02-15T06:08:41;56657.97;;;-146.93;88.07
21664;BME280;10993;52.510;13.456;2023-02-15T06:13:43;56712.66;;;-146.93;88.77
21664;BME280;10993;52.510;13.456;2023-02-15T06:18:43;56710.63;;;-146.93;89.15
21664;BME280;10993;52.510;13.456;2023-02-15T06:23:44;56682.28;;;-146.93;89.70
21664;BME280;10993;52.510;13.456;2023-02-15T06:28:45;56710.63;;;-146.93;89.72
21664;BME280;10993;52.510;13.456;2023-02-15T06:33:46;56692.41;;;-146.93;89.35
21664;BME280;10993;52.510;13.456;2023-02-15T06:38:46;56694.41;;;-146.93;89.23
21664;BME280;10993;52.510;13.456;2023-02-15T06:43:48;56704.53;;;-146.93;89.06
21664;BME280;10993;52.510;13.456;2023-02-15T06:48:48;56696.44;;;-146.93;88.91
21664;BME280;10993;52.510;13.456;2023-02-15T06:53:49;56666.06;;;-146.93;89.36
21664;BME280;10993;52.510;13.456;2023-02-15T07:04:48;56692.41;;;-146.93;89.68
21664;BME280;10993;52.510;13.456;2023-02-15T07:09:48;56702.53;;;-146.93;89.40
21664;BME280;10993;52.510;13.456;2023-02-15T07:14:48;56702.53;;;-146.93;88.72
21664;BME280;10993;52.510;13.456;2023-02-15T07:19:50;56641.78;;;-146.93;87.93
21664;BME280;10993;52.510;13.456;2023-02-15T07:24:50;56690.38;;;-146.93;87.91
21664;BME280;10993;52.510;13.456;2023-02-15T07:29:54;56686.31;;;-146.93;88.02
21664;BME280;10993;52.510;13.456;2023-02-15T07:34:56;56682.28;;;-146.93;87.57
21664;BME280;10993;52.510;13.456;2023-02-15T07:39:57;56657.97;;;-146.93;86.26
21664;BME280;10993;52.510;13.456;2023-02-15T07:44:57;56678.22;;;-146.93;86.79
21664;BME280;10993;52.510;13.456;2023-02-15T07:49:59;56690.38;;;-146.93;86.53
21664;BME280;10993;52.510;13.456;2023-02-15T07:54:59;56662.03;;;-146.93;86.41
21664;BME280;10993;52.510;13.456;2023-02-15T07:59:59;56672.16;;;-146.93;85.93
21664;BME280;10993;52.510;13.456;2023-02-15T08:05:01;56674.19;;;-146.93;85.18
21664;BME280;10993;52.510;13.456;2023-02-15T08:10:01;56651.91;;;-146.93;83.88
21664;BME280;10993;52.510;13.456;2023-02-15T08:15:02;56641.78;;;-146.93;83.26
21664;BME280;10993;52.510;13.456;2023-02-15T08:20:05;56617.47;;;-146.93;82.56
21664;BME280;10993;52.510;13.456;2023-02-15T08:25:05;56570.91;;;-146.93;81.20
21664;BME280;10993;52.510;13.456;2023-02-15T08:30:07;56682.28;;;-146.93;80.62
21664;BME280;10993;52.510;13.456;2023-02-15T08:35:09;56674.19;;;-146.93;81.26
21664;BME280;10993;52.510;13.456;2023-02-15T08:40:10;56611.41;;;-146.93;80.98
21664;BME280;10993;52.510;13.456;2023-02-15T08:45:13;56613.44;;;-146.93;81.92
21664;BME280;10993;52.510;13.456;2023-02-15T08:50:15;56633.69;;;-146.93;80.80
21664;BME280;10993;52.510;13.456;2023-02-15T08:55:15;56532.44;;;-146.93;80.01
21664;BME280;10993;52.510;13.456;2023-02-15T09:00:17;56651.91;;;-146.93;78.21
21664;BME280;10993;52.510;13.456;2023-02-15T09:05:18;56653.94;;;-146.93;77.43
21664;BME280;10993;52.510;13.456;2023-02-15T09:10:19;57194.56;;;-146.93;77.26
21664;BME280;10993;52.510;13.456;2023-02-15T09:15:20;56623.56;;;-146.93;78.03
21664;BME280;10993;52.510;13.456;2023-02-15T09:20:21;56605.34;;;-146.93;75.38
21664;BME280;10993;52.510;13.456;2023-02-15T09:25:22;56605.34;;;-146.93;73.94
21664;BME280;10993;52.510;13.456;2023-02-15T09:30:23;56560.78;;;-146.93;73.60
21664;BME280;10993;52.510;13.456;2023-02-15T09:35:24;56611.41;;;-146.93;75.30
21664;BME280;10993;52.510;13.456;2023-02-15T09:40:26;56589.13;;;-146.93;75.07
21664;BME280;10993;52.510;13.456;2023-02-15T09:45:42;56595.22;;;-146.93;73.70
21664;BME280;10993;52.510;13.456;2023-02-15T09:50:56;56593.19;;;-146.93;72.20
21664;BME280;10993;52.510;13.456;2023-02-15T09:56:02;56579.00;;;-146.93;70.91
21664;BME280;10993;52.510;13.456;2023-02-15T10:01:14;56601.28;;;-146.93;70.04
21664;BME280;10993;52.510;13.456;2023-02-15T10:06:32;56605.34;;;-146.93;68.40
21664;BME280;10993;52.510;13.456;2023-02-15T10:11:54;56601.28;;;-146.93;68.17
21664;BME280;10993;52.510;13.456;2023-02-15T10:17:06;56512.19;;;-146.93;65.51
21664;BME280;10993;52.510;13.456;2023-02-15T10:22:22;56605.34;;;-146.93;64.72
21664;BME280;10993;52.510;13.456;2023-02-15T10:27:27;56568.88;;;-146.93;63.61
21664;BME280;10993;52.510;13.456;2023-02-15T10:32:31;56619.50;;;-146.93;64.32
21664;BME280;10993;52.510;13.456;2023-02-15T10:37:49;56552.69;;;-146.93;55.72
21664;BME280;10993;52.510;13.456;2023-02-15T10:43:06;56674.19;;;-146.93;52.73
21664;BME280;10993;52.510;13.456;2023-02-15T10:48:20;56670.13;;;-146.93;50.03
21664;BME280;10993;52.510;13.456;2023-02-15T10:53:40;56686.31;;;-146.93;51.51
21664;BME280;10993;52.510;13.456;2023-02-15T10:58:58;56718.72;;;-146.93;49.03
21664;BME280;10993;52.510;13.456;2023-02-15T11:04:29;56759.22;;;-146.93;43.68
21664;BME280;10993;52.510;13.456;2023-02-15T11:09:41;56783.50;;;-146.93;42.87
21664;BME280;10993;52.510;13.456;2023-02-15T11:14:46;56822.00;;;-146.93;41.86
21664;BME280;10993;52.510;13.456;2023-02-15T11:19:55;56860.47;;;-146.93;39.71
21664;BME280;10993;52.510;13.456;2023-02-15T11:25:00;57010.31;;;-146.93;37.16
21664;BME280;10993;52.510;13.456;2023-02-15T11:30:04;56874.63;;;-146.93;38.02
21664;BME280;10993;52.510;13.456;2023-02-15T11:35:19;56913.09;;;-146.93;37.03
21664;BME280;10993;52.510;13.456;2023-02-15T11:40:24;56905.00;;;-146.93;36.82
21664;BME280;10993;52.510;13.456;2023-02-15T11:45:27;56983.97;;;-146.93;36.51
21664;BME280;10993;52.510;13.456;2023-02-15T11:50:31;57058.91;;;-146.93;34.77
21664;BME280;10993;52.510;13.456;2023-02-15T11:55:33;56955.63;;;-146.93;36.40
21664;BME280;10993;52.510;13.456;2023-02-15T12:00:37;56824.00;;;-146.93;36.81
21664;BME280;10993;52.510;13.456;2023-02-15T12:05:40;56850.34;;;-146.93;38.74
21664;BME280;10993;52.510;13.456;2023-02-15T12:10:51;56957.66;;;-146.93;37.67
21664;BME280;10993;52.510;13.456;2023-02-15T12:15:57;57054.84;;;-146.93;37.00
21664;BME280;10993;52.510;13.456;2023-02-15T12:21:02;57326.22;;;-146.93;34.54
21664;BME280;10993;52.510;13.456;2023-02-15T12:26:05;57182.44;;;-146.93;33.27
21664;BME280;10993;52.510;13.456;2023-02-15T12:31:10;56905.00;;;-146.93;37.84
21664;BME280;10993;52.510;13.456;2023-02-15T12:36:21;56815.91;;;-146.93;39.09
21664;BME280;10993;52.510;13.456;2023-02-15T12:41:25;56662.03;;;-146.93;45.16
21664;BME280;10993;52.510;13.456;2023-02-15T12:46:26;56621.53;;;-146.93;51.45
21664;BME280;10993;52.510;13.456;2023-02-15T12:51:27;56611.41;;;-146.93;53.72
21664;BME280;10993;52.510;13.456;2023-02-15T12:56:29;56609.38;;;-146.93;55.38
21664;BME280;10993;52.510;13.456;2023-02-15T13:01:31;56649.88;;;-146.93;58.47
21664;BME280;10993;52.510;13.456;2023-02-15T13:06:34;56536.50;;;-146.93;59.39
21664;BME280;10993;52.510;13.456;2023-02-15T13:11:37;56615.47;;;-146.93;58.38
21664;BME280;10993;52.510;13.456;2023-02-15T13:16:39;56617.47;;;-146.93;58.23
21664;BME280;10993;52.510;13.456;2023-02-15T13:21:42;56619.50;;;-146.93;56.28
21664;BME280;10993;52.510;13.456;2023-02-15T13:26:45;56427.16;;;-146.93;55.73
21664;BME280;10993;52.510;13.456;2023-02-15T13:31:48;56504.09;;;-146.93;55.62
21664;BME280;10993;52.510;13.456;2023-02-15T13:36:54;56601.28;;;-146.93;57.84
21664;BME280;10993;52.510;13.456;2023-02-15T13:42:03;56629.63;;;-146.93;57.00
21664;BME280;10993;52.510;13.456;2023-02-15T13:47:16;56637.72;;;-146.93;55.89
21664;BME280;10993;52.510;13.456;2023-02-15T13:52:23;56680.25;;;-146.93;54.47
21664;BME280;10993;52.510;13.456;2023-02-15T13:57:46;56662.03;;;-146.93;54.56
21664;BME280;10993;52.510;13.456;2023-02-15T14:03:05;56653.94;;;-146.93;55.22
21664;BME280;10993;52.510;13.456;2023-02-15T14:08:20;56649.88;;;-146.93;54.80
21664;BME280;10993;52.510;13.456;2023-02-15T14:13:39;56674.19;;;-146.93;54.01
21664;BME280;10993;52.510;13.456;2023-02-15T14:18:47;56574.97;;;-146.93;53.29
21664;BME280;10993;52.510;13.456;2023-02-15T14:24:01;56805.78;;;-146.93;54.34
21664;BME280;10993;52.510;13.456;2023-02-15T14:29:18;56548.66;;;-146.93;54.48
21664;BME280;10993;52.510;13.456;2023-02-15T14:34:23;56556.75;;;-146.93;54.57
21664;BME280;10993;52.510;13.456;2023-02-15T14:39:31;56738.97;;;-146.93;54.50
21664;BME280;10993;52.510;13.456;2023-02-15T14:44:59;56963.72;;;-146.93;53.99
21664;BME280;10993;52.510;13.456;2023-02-15T14:55:37;56641.78;;;-146.93;54.96
21664;BME280;10993;52.510;13.456;2023-02-15T15:00:39;56690.38;;;-146.93;55.38
21664;BME280;10993;52.510;13.456;2023-02-15T15:05:48;56585.09;;;-146.93;57.14
21664;BME280;10993;52.510;13.456;2023-02-15T15:10:49;56556.75;;;-146.93;56.45
21664;BME280;10993;52.510;13.456;2023-02-15T15:15:52;56621.53;;;-146.93;56.62
21664;BME280;10993;52.510;13.456;2023-02-15T15:20:53;56508.16;;;-146.93;57.81
21664;BME280;10993;52.510;13.456;2023-02-15T15:25:56;56645.81;;;-146.93;57.91
21664;BME280;10993;52.510;13.456;2023-02-15T15:31:02;56684.31;;;-146.93;58.95
21664;BME280;10993;52.510;13.456;2023-02-15T15:36:24;56625.59;;;-146.93;58.03
21664;BME280;10993;52.510;13.456;2023-02-15T15:41:39;56629.63;;;-146.93;58.35
21664;BME280;10993;52.510;13.456;2023-02-15T15:46:58;56570.91;;;-146.93;58.46
21664;BME280;10993;52.510;13.456;2023-02-15T15:52:08;56633.69;;;-146.93;58.88
21664;BME280;10993;52.510;13.456;2023-02-15T15:57:17;56627.59;;;-146.93;59.35
21664;BME280;10993;52.510;13.456;2023-02-15T16:02:21;56627.59;;;-146.93;59.17
21664;BME280;10993;52.510;13.456;2023-02-15T16:07:25;57376.84;;;-146.93;60.38
21664;BME280;10993;52.510;13.456;2023-02-15T16:12:27;56625.59;;;-146.93;62.05
21664;BME280;10993;52.510;13.456;2023-02-15T16:17:33;56601.28;;;-146.93;63.80
21664;BME280;10993;52.510;13.456;2023-02-15T16:22:33;56613.44;;;-146.93;63.88
21664;BME280;10993;52.510;13.456;2023-02-15T16:27:36;56613.44;;;-146.93;65.56
21664;BME280;10993;52.510;13.456;2023-02-15T16:32:38;56599.25;;;-146.93;66.47
21664;BME280;10993;52.510;13.456;2023-02-15T16:37:38;56593.19;;;-146.93;66.08
21664;BME280;10993;52.510;13.456;2023-02-15T16:42:39;56593.19;;;-146.93;67.01
21664;BME280;10993;52.510;13.456;2023-02-15T16:47:42;56572.94;;;-146.93;68.81
21664;BME280;10993;52.510;13.456;2023-02-15T16:52:44;56643.81;;;-146.93;67.81
21664;BME280;10993;52.510;13.456;2023-02-15T16:57:44;56566.88;;;-146.93;69.68
21664;BME280;10993;52.510;13.456;2023-02-15T17:02:55;56593.19;;;-146.93;70.48
21664;BME280;10993;52.510;13.456;2023-02-15T17:08:14;56589.13;;;-146.93;71.07
21664;BME280;10993;52.510;13.456;2023-02-15T17:13:18;56577.00;;;-146.93;72.06
21664;BME280;10993;52.510;13.456;2023-02-15T17:18:22;57158.13;;;-146.93;71.82
21664;BME280;10993;52.510;13.456;2023-02-15T17:23:28;56617.47;;;-146.93;71.64
21664;BME280;10993;52.510;13.456;2023-02-15T17:28:30;56593.19;;;-146.93;73.69
21664;BME280;10993;52.510;13.456;2023-02-15T17:33:37;56593.19;;;-146.93;74.45
21664;BME280;10993;52.510;13.456;2023-02-15T17:38:41;56579.00;;;-146.93;75.54
21664;BME280;10993;52.510;13.456;2023-02-15T17:43:58;56593.19;;;-146.93;76.08
21664;BME280;10993;52.510;13.456;2023-02-15T17:49:01;56585.09;;;-146.93;76.80
21664;BME280;10993;52.510;13.456;2023-02-15T17:54:05;56589.13;;;-146.93;76.52
21664;BME280;10993;52.510;13.456;2023-02-15T17:59:24;56599.25;;;-146.93;75.91
21664;BME280;10993;52.510;13.456;2023-02-15T18:04:26;56633.69;;;-146.93;76.15
21664;BME280;10993;52.510;13.456;2023-02-15T18:09:44;56603.31;;;-146.93;76.54
21664;BME280;10993;52.510;13.456;2023-02-15T18:15:05;56423.13;;;-146.93;74.73
21664;BME280;10993;52.510;13.456;2023-02-15T18:20:17;56554.72;;;-146.93;74.43
21664;BME280;10993;52.510;13.456;2023-02-15T18:25:19;56619.50;;;-146.93;75.15
21664;BME280;10993;52.510;13.456;2023-02-15T18:30:22;57500.38;;;-146.93;75.19
21664;BME280;10993;52.510;13.456;2023-02-15T18:35:27;56591.16;;;-146.93;75.46
21664;BME280;10993;52.510;13.456;2023-02-15T18:40:29;56591.16;;;-146.93;75.41
21664;BME280;10993;52.510;13.456;2023-02-15T18:45:29;56603.31;;;-146.93;75.69
21664;BME280;10993;52.510;13.456;2023-02-15T18:50:36;56603.31;;;-146.93;75.71
21664;BME280;10993;52.510;13.456;2023-02-15T18:55:37;56585.09;;;-146.93;76.68
21664;BME280;10993;52.510;13.456;2023-02-15T19:00:38;56572.94;;;-146.93;77.34
21664;BME280;10993;52.510;13.456;2023-02-15T19:05:41;56520.28;;;-146.93;77.46
21664;BME280;10993;52.510;13.456;2023-02-15T19:10:43;56489.94;;;-146.93;77.38
21664;BME280;10993;52.510;13.456;2023-02-15T19:15:44;56605.34;;;-146.93;77.28
21664;BME280;10993;52.510;13.456;2023-02-15T19:20:46;56621.53;;;-146.93;75.84
21664;BME280;10993;52.510;13.456;2023-02-15T19:25:47;57131.81;;;-146.93;75.32
21664;BME280;10993;52.510;13.456;2023-02-15T19:30:48;56577.00;;;-146.93;76.75
21664;BME280;10993;52.510;13.456;2023-02-15T19:35:52;56540.53;;;-146.93;78.21
21664;BME280;10993;52.510;13.456;2023-02-15T19:40:58;56577.00;;;-146.93;79.46
21664;BME280;10993;52.510;13.456;2023-02-15T19:45:59;56552.69;;;-146.93;80.46
21664;BME280;10993;52.510;13.456;2023-02-15T19:51:02;56633.69;;;-146.93;80.29
21664;BME280;10993;52.510;13.456;2023-02-15T19:56:03;56589.13;;;-146.93;80.94
21664;BME280;10993;52.510;13.456;2023-02-15T20:01:04;56581.03;;;-146.93;81.43
21664;BME280;10993;52.510;13.456;2023-02-15T20:06:09;56607.34;;;-146.93;81.16
21664;BME280;10993;52.510;13.456;2023-02-15T20:11:12;56581.03;;;-146.93;80.45
21664;BME280;10993;52.510;13.456;2023-02-15T20:16:13;56548.66;;;-146.93;80.65
21664;BME280;10993;52.510;13.456;2023-02-15T20:21:15;56550.66;;;-146.93;80.57
21664;BME280;10993;52.510;13.456;2023-02-15T20:26:16;56514.22;;;-146.93;81.39
21664;BME280;10993;52.510;13.456;2023-02-15T20:31:18;56487.91;;;-146.93;80.74
21664;BME280;10993;52.510;13.456;2023-02-15T20:36:21;56633.69;;;-146.93;80.67
21664;BME280;10993;52.510;13.456;2023-02-15T20:41:22;56568.88;;;-146.93;81.03
21664;BME280;10993;52.510;13.456;2023-02-15T20:46:34;56682.28;;;-146.93;80.98
21664;BME280;10993;52.510;13.456;2023-02-15T20:51:36;56574.97;;;-146.93;81.62
21664;BME280;10993;52.510;13.456;2023-02-15T20:56:37;56577.00;;;-146.93;80.60
21664;BME280;10993;52.510;13.456;2023-02-15T21:01:38;56574.97;;;-146.93;81.10
21664;BME280;10993;52.510;13.456;2023-02-15T21:06:40;56609.38;;;-146.93;82.72
21664;BME280;10993;52.510;13.456;2023-02-15T21:11:41;56572.94;;;-146.93;82.09
21664;BME280;10993;52.510;13.456;2023-02-15T21:16:43;56619.50;;;-146.93;80.90
21664;BME280;10993;52.510;13.456;2023-02-15T21:21:46;56534.47;;;-146.93;80.85
21664;BME280;10993;52.510;13.456;2023-02-15T21:26:47;56502.06;;;-146.93;81.60
21664;BME280;10993;52.510;13.456;2023-02-15T21:31:48;56613.44;;;-146.93;82.62
21664;BME280;10993;52.510;13.456;2023-02-15T21:36:49;56599.25;;;-146.93;83.74
21664;BME280;10993;52.510;13.456;2023-02-15T21:41:51;56577.00;;;-146.93;84.16
21664;BME280;10993;52.510;13.456;2023-02-15T21:47:17;56577.00;;;-146.93;84.81
21664;BME280;10993;52.510;13.456;2023-02-15T21:52:38;56572.94;;;-146.93;83.52
21664;BME280;10993;52.510;13.456;2023-02-15T21:57:38;56532.44;;;-146.93;83.74
21664;BME280;10993;52.510;13.456;2023-02-15T22:02:39;56526.38;;;-146.93;84.51
21664;BME280;10993;52.510;13.456;2023-02-15T22:07:43;56595.22;;;-146.93;85.57
21664;BME280;10993;52.510;13.456;2023-02-15T22:12:43;56581.03;;;-146.93;85.62
21664;BME280;10993;52.510;13.456;2023-02-15T22:17:44;56611.41;;;-146.93;84.74
21664;BME280;10993;52.510;13.456;2023-02-15T22:22:47;56637.72;;;-146.93;84.88
21664;BME280;10993;52.510;13.456;2023-02-15T22:27:48;56568.88;;;-146.93;85.22
21664;BME280;10993;52.510;13.456;2023-02-15T22:32:49;56593.19;;;-146.93;85.15
21664;BME280;10993;52.510;13.456;2023-02-15T22:37:51;56556.75;;;-146.93;84.54
21664;BME280;10993;52.510;13.456;2023-02-15T22:42:53;56617.47;;;-146.93;85.39
21664;BME280;10993;52.510;13.456;2023-02-15T22:47:55;56613.44;;;-146.93;85.34
21664;BME280;10993;52.510;13.456;2023-02-15T22:52:59;56635.72;;;-146.93;84.32
21664;BME280;10993;52.510;13.456;2023-02-15T22:58:01;56475.75;;;-146.93;85.16
21664;BME280;10993;52.510;13.456;2023-02-15T23:03:11;56617.47;;;-146.93;86.02
21664;BME280;10993;52.510;13.456;2023-02-15T23:08:14;56524.34;;;-146.93;86.38
21664;BME280;10993;52.510;13.456;2023-02-15T23:13:18;56581.03;;;-146.93;86.03
21664;BME280;10993;52.510;13.456;2023-02-15T23:18:26;56653.94;;;-146.93;85.06
21664;BME280;10993;52.510;13.456;2023-02-15T23:23:31;56500.06;;;-146.93;85.07
21664;BME280;10993;52.510;13.456;2023-02-15T23:28:34;56637.72;;;-146.93;84.88
21664;BME280;10993;52.510;13.456;2023-02-15T23:33:35;56627.59;;;-146.93;85.02
21664;BME280;10993;52.510;13.456;2023-02-15T23:38:36;56609.38;;;-146.93;85.14
21664;BME280;10993;52.510;13.456;2023-02-15T23:43:39;56591.16;;;-146.93;85.58
21664;BME280;10993;52.510;13.456;2023-02-15T23:48:40;56579.00;;;-146.93;85.39
21664;BME280;10993;52.510;13.456;2023-02-15T23:53:42;56643.81;;;-146.93;85.06
21664;BME280;10993;52.510;13.456;2023-02-15T23:58:44;56609.38;;;-146.93;85.32
